createdAt,value
2018-11-10T00:00:50.552Z,100021.61
2018-11-10T00:03:19.064Z,100019.48
2018-11-10T00:05:47.574Z,100022.45
2018-11-10T00:08:16.060Z,100015.61
2018-11-10T00:10:44.447Z,100011.34
2018-11-10T00:13:12.853Z,99999.38
2018-11-10T00:15:41.257Z,99989.12
2018-11-10T00:18:09.707Z,99992.09
2018-11-10T00:20:38.196Z,99987.41
2018-11-10T00:23:06.730Z,99987.39
2018-11-10T00:25:35.126Z,99985.26
2018-11-10T00:28:03.548Z,99985.28
2018-11-10T00:30:32.016Z,99987.84
2018-11-10T00:33:00.515Z,99989.09
2018-11-10T00:35:28.982Z,99984.78
2018-11-10T00:37:57.493Z,99978.79
2018-11-10T00:40:25.962Z,99976.66
2018-11-10T00:42:54.466Z,99973.65
2018-11-10T00:45:22.956Z,99967.67
2018-11-10T00:47:51.416Z,99966.38
2018-11-10T00:50:19.919Z,99967.64
2018-11-10T00:52:48.425Z,99971.42
2018-11-10T00:55:18.734Z,99968.42
2018-11-10T00:57:49.252Z,99964.16
2018-11-10T01:00:17.701Z,99961.16
2018-11-10T01:02:46.219Z,99961.14
2018-11-10T01:05:14.622Z,99953.02
2018-11-10T01:07:43.138Z,99943.59
2018-11-10T01:10:12.989Z,99941.86
2018-11-10T01:12:41.635Z,99947.80
2018-11-10T01:15:12.465Z,99948.64
2018-11-10T01:17:41.670Z,99941.41
2018-11-10T01:20:11.276Z,99936.70
2018-11-10T01:22:39.829Z,99934.98
2018-11-10T01:25:09.562Z,99926.91
2018-11-10T01:27:38.147Z,99917.98
2018-11-10T01:30:10.451Z,99918.40
2018-11-10T01:32:38.892Z,99911.56
2018-11-10T01:35:07.386Z,99906.02
2018-11-10T01:37:36.136Z,99901.74
2018-11-10T01:40:06.281Z,99891.94
2018-11-10T01:42:35.725Z,99876.97
2018-11-10T01:45:04.179Z,99876.97
2018-11-10T01:47:32.780Z,99879.55
2018-11-10T01:50:01.230Z,99879.09
2018-11-10T01:52:29.693Z,99865.42
2018-11-10T01:54:58.093Z,99871.00
2018-11-10T01:57:26.584Z,99870.56
2018-11-10T01:59:54.978Z,99870.56
2018-11-10T02:02:23.385Z,99873.96
2018-11-10T02:04:51.991Z,99873.55
2018-11-10T02:07:20.496Z,99867.94
2018-11-10T02:09:48.939Z,99862.39
2018-11-10T02:12:17.356Z,99857.71
2018-11-10T02:14:45.833Z,99856.43
2018-11-10T02:17:14.238Z,99855.16
2018-11-10T02:19:42.813Z,99844.92
2018-11-10T02:22:11.292Z,99832.98
2018-11-10T02:24:39.757Z,99823.98
2018-11-10T02:27:13.520Z,99816.69
2018-11-10T02:29:42.026Z,99820.52
2018-11-10T02:32:10.531Z,99819.21
2018-11-10T02:34:38.933Z,99821.39
2018-11-10T02:37:07.395Z,99802.97
2018-11-10T02:39:35.875Z,99817.48
2018-11-10T02:42:04.313Z,99800.39
2018-11-10T02:44:32.791Z,99800.41
2018-11-10T02:47:01.213Z,99795.74
2018-11-10T02:49:29.693Z,99788.43
2018-11-10T02:51:58.164Z,99794.38
2018-11-10T02:54:26.597Z,99787.08
2018-11-10T02:56:55.406Z,99790.52
2018-11-10T02:59:24.215Z,99789.23
2018-11-10T03:01:52.694Z,99790.50
2018-11-10T03:04:21.197Z,99792.17
2018-11-10T03:06:49.652Z,99789.63
2018-11-10T03:09:18.052Z,99790.06
2018-11-10T03:11:46.481Z,99785.77
2018-11-10T03:14:14.945Z,99786.16
2018-11-10T03:16:43.389Z,99779.20
2018-11-10T03:19:11.799Z,99777.47
2018-11-10T03:21:40.222Z,99768.43
2018-11-10T03:24:08.655Z,99770.17
2018-11-10T03:26:37.069Z,99768.80
2018-11-10T03:29:05.911Z,99761.91
2018-11-10T03:31:34.331Z,99760.21
2018-11-10T03:34:02.805Z,99755.52
2018-11-10T03:36:31.325Z,99759.00
2018-11-10T03:38:59.749Z,99756.88
2018-11-10T03:41:28.136Z,99757.23
2018-11-10T03:43:56.629Z,99743.53
2018-11-10T03:46:26.308Z,99741.36
2018-11-10T03:48:55.130Z,99730.16
2018-11-10T03:51:23.472Z,99733.98
2018-11-10T03:53:51.937Z,99725.04
2018-11-10T03:56:20.436Z,99719.38
2018-11-10T03:58:48.816Z,99713.30
2018-11-10T04:01:17.282Z,99714.58
2018-11-10T04:03:45.655Z,99710.27
2018-11-10T04:06:14.183Z,99719.63
2018-11-10T04:08:42.595Z,99720.02
2018-11-10T04:11:11.030Z,99716.19
2018-11-10T04:13:39.476Z,99708.89
2018-11-10T04:16:07.858Z,99710.48
2018-11-10T04:18:36.364Z,99696.77
2018-11-10T04:21:04.823Z,99699.77
2018-11-10T04:23:33.230Z,99698.44
2018-11-10T04:26:01.659Z,99687.31
2018-11-10T04:28:30.077Z,99681.66
2018-11-10T04:30:58.471Z,99679.02
2018-11-10T04:33:26.886Z,99678.20
2018-11-10T04:35:55.283Z,99673.14
2018-11-10T04:38:23.718Z,99671.67
2018-11-10T04:40:52.208Z,99667.08
2018-11-10T04:43:20.654Z,99667.84
2018-11-10T04:45:49.057Z,99668.75
2018-11-10T04:48:17.523Z,99655.39
2018-11-10T04:50:45.932Z,99649.33
2018-11-10T04:53:14.383Z,99650.66
2018-11-10T04:55:42.809Z,99651.84
2018-11-10T04:58:11.253Z,99655.67
2018-11-10T05:00:39.681Z,99645.39
2018-11-10T05:03:08.128Z,99651.81
2018-11-10T05:05:36.516Z,99670.56
2018-11-10T05:08:05.137Z,99659.41
2018-11-10T05:10:33.581Z,99657.31
2018-11-10T05:13:01.998Z,99667.53
2018-11-10T05:15:30.391Z,99666.33
2018-11-10T05:17:58.843Z,99661.68
2018-11-10T05:20:27.294Z,99662.97
2018-11-10T05:22:55.703Z,99668.57
2018-11-10T05:25:24.172Z,99664.30
2018-11-10T05:27:52.603Z,99671.47
2018-11-10T05:30:21.102Z,99675.87
2018-11-10T05:32:49.493Z,99673.45
2018-11-10T05:35:17.921Z,99677.45
2018-11-10T05:37:46.376Z,99676.32
2018-11-10T05:40:14.763Z,99684.50
2018-11-10T05:42:43.254Z,99681.62
2018-11-10T05:45:11.668Z,99677.02
2018-11-10T05:47:40.173Z,99677.17
2018-11-10T05:50:09.298Z,99672.97
2018-11-10T05:52:37.722Z,99671.31
2018-11-10T05:55:07.503Z,99674.38
2018-11-10T05:57:35.986Z,99681.70
2018-11-10T06:00:06.151Z,99675.30
2018-11-10T06:02:34.581Z,99672.77
2018-11-10T06:05:03.040Z,99683.07
2018-11-10T06:07:31.483Z,99681.79
2018-11-10T06:09:59.965Z,99680.09
2018-11-10T06:12:29.067Z,99682.66
2018-11-10T06:14:57.523Z,99669.00
2018-11-10T06:17:25.957Z,99672.48
2018-11-10T06:19:54.386Z,99676.75
2018-11-10T06:22:22.801Z,99680.59
2018-11-10T06:24:51.305Z,99672.51
2018-11-10T06:27:19.707Z,99668.22
2018-11-10T06:29:48.116Z,99676.75
2018-11-10T06:32:16.597Z,99674.19
2018-11-10T06:34:45.025Z,99668.70
2018-11-10T06:37:13.426Z,99672.61
2018-11-10T06:39:41.873Z,99672.65
2018-11-10T06:42:10.256Z,99678.61
2018-11-10T06:44:38.747Z,99679.47
2018-11-10T06:47:07.302Z,99679.47
2018-11-10T06:49:35.687Z,99682.87
2018-11-10T06:52:05.037Z,99683.30
2018-11-10T06:54:33.452Z,99690.15
2018-11-10T06:57:01.874Z,99688.45
2018-11-10T06:59:30.291Z,99688.47
2018-11-10T07:01:58.743Z,99689.28
2018-11-10T07:04:27.175Z,99694.41
2018-11-10T07:06:55.613Z,99695.23
2018-11-10T07:09:24.096Z,99701.23
2018-11-10T07:11:52.483Z,99700.82
2018-11-10T07:14:20.898Z,99704.25
2018-11-10T07:16:49.377Z,99703.84
2018-11-10T07:19:17.803Z,99709.42
2018-11-10T07:21:46.224Z,99713.70
2018-11-10T07:24:14.586Z,99714.56
2018-11-10T07:26:43.046Z,99710.70
2018-11-10T07:29:11.530Z,99719.67
2018-11-10T07:31:40.049Z,99719.70
2018-11-10T07:34:08.452Z,99718.81
2018-11-10T07:36:36.889Z,99713.27
2018-11-10T07:39:08.077Z,99723.11
2018-11-10T07:44:22.739Z,99717.98
2018-11-10T07:46:51.143Z,99711.98
2018-11-10T07:49:19.728Z,99720.55
2018-11-10T07:51:48.740Z,99718.84
2018-11-10T07:54:17.188Z,99713.72
2018-11-10T07:56:45.752Z,99720.09
2018-11-10T07:59:14.176Z,99718.37
2018-11-10T08:01:42.605Z,99715.38
2018-11-10T08:04:10.991Z,99714.13
2018-11-10T08:06:39.417Z,99723.03
2018-11-10T08:09:09.193Z,99724.72
2018-11-10T08:11:37.704Z,99728.16
2018-11-10T08:14:06.394Z,99724.75
2018-11-10T08:16:35.084Z,99718.32
2018-11-10T08:19:03.545Z,99730.70
2018-11-10T08:21:32.067Z,99727.28
2018-11-10T08:24:00.590Z,99730.66
2018-11-10T08:26:29.004Z,99718.70
2018-11-10T08:28:57.424Z,99726.77
2018-11-10T08:31:25.925Z,99722.50
2018-11-10T08:33:54.313Z,99728.06
2018-11-10T08:36:22.756Z,99724.98
2018-11-10T08:38:51.176Z,99727.52
2018-11-10T08:41:19.554Z,99733.91
2018-11-10T08:43:48.129Z,99740.30
2018-11-10T08:46:16.595Z,99738.60
2018-11-10T08:48:45.031Z,99737.32
2018-11-10T08:51:13.501Z,99737.75
2018-11-10T08:53:41.930Z,99747.13
2018-11-10T08:56:10.419Z,99744.98
2018-11-10T08:58:38.793Z,99749.25
2018-11-10T09:01:07.315Z,99756.05
2018-11-10T09:03:35.752Z,99744.94
2018-11-10T09:08:31.552Z,99756.02
2018-11-10T09:11:00.093Z,99752.97
2018-11-10T09:13:28.533Z,99758.17
2018-11-10T09:15:56.974Z,99759.88
2018-11-10T09:18:25.436Z,99757.75
2018-11-10T09:20:53.941Z,99765.89
2018-11-10T09:23:22.395Z,99763.75
2018-11-10T09:25:50.841Z,99763.72
2018-11-10T09:28:19.300Z,99761.17
2018-11-10T09:30:47.789Z,99762.00
2018-11-10T09:33:16.236Z,99758.13
2018-11-10T09:35:44.632Z,99765.39
2018-11-10T09:38:13.057Z,99765.37
2018-11-10T09:40:41.483Z,99750.47
2018-11-10T09:43:09.900Z,99764.94
2018-11-10T09:45:38.385Z,99758.94
2018-11-10T09:48:06.840Z,99767.44
2018-11-10T09:50:35.315Z,99773.77
2018-11-10T09:53:03.742Z,99769.03
2018-11-10T09:55:32.201Z,99764.28
2018-11-10T09:58:00.660Z,99764.28
2018-11-10T10:00:29.195Z,99761.71
2018-11-10T10:02:57.677Z,99762.97
2018-11-10T10:05:26.092Z,99758.64
2018-11-10T10:07:54.550Z,99764.97
2018-11-10T10:10:22.997Z,99767.54
2018-11-10T10:12:51.465Z,99764.52
2018-11-10T10:15:20.091Z,99764.50
2018-11-10T10:17:48.707Z,99764.50
2018-11-10T10:20:18.277Z,99763.22
2018-11-10T10:22:47.640Z,99756.31
2018-11-10T10:25:16.816Z,99759.69
2018-11-10T10:27:46.072Z,99753.68
2018-11-10T10:30:18.721Z,99751.95
2018-11-10T10:32:47.999Z,99757.07
2018-11-10T10:35:16.789Z,99749.39
2018-11-10T10:37:46.301Z,99746.84
2018-11-10T10:40:15.228Z,99751.56
2018-11-10T10:42:44.553Z,99753.80
2018-11-10T10:45:14.381Z,99761.97
2018-11-10T10:47:43.218Z,99757.73
2018-11-10T10:50:14.113Z,99769.33
2018-11-10T10:52:42.621Z,99762.16
2018-11-10T10:55:12.716Z,99769.00
2018-11-10T10:57:41.557Z,99772.02
2018-11-10T11:00:17.249Z,99768.18
2018-11-10T11:02:50.950Z,99773.36
2018-11-10T11:06:23.128Z,99768.20
2018-11-10T11:08:51.836Z,99759.22
2018-11-10T11:11:20.248Z,99756.19
2018-11-10T11:13:48.754Z,99757.48
2018-11-10T11:16:17.167Z,99751.91
2018-11-10T11:18:45.623Z,99751.03
2018-11-10T11:21:14.062Z,99752.32
2018-11-10T11:23:42.536Z,99742.95
2018-11-10T11:26:11.026Z,99745.95
2018-11-10T11:28:39.554Z,99750.25
2018-11-10T11:31:08.007Z,99755.43
2018-11-10T11:33:36.477Z,99752.45
2018-11-10T11:36:04.938Z,99749.08
2018-11-10T11:38:33.349Z,99749.52
2018-11-10T11:41:01.779Z,99748.64
2018-11-10T11:43:30.168Z,99748.66
2018-11-10T11:45:58.618Z,99749.09
2018-11-10T11:48:27.072Z,99742.68
2018-11-10T11:50:55.518Z,99742.27
2018-11-10T11:53:23.984Z,99733.69
2018-11-10T11:55:52.482Z,99727.29
2018-11-10T11:58:21.092Z,99728.57
2018-11-10T12:00:49.381Z,99729.86
2018-11-10T12:03:17.893Z,99722.16
2018-11-10T12:05:46.345Z,99717.00
2018-11-10T12:08:14.770Z,99722.16
2018-11-10T12:10:44.452Z,99713.59
2018-11-10T12:13:12.910Z,99722.16
2018-11-10T12:15:41.352Z,99714.05
2018-11-10T12:18:09.785Z,99711.48
2018-11-10T12:20:38.581Z,99711.48
2018-11-10T12:23:06.988Z,99713.17
2018-11-10T12:25:35.401Z,99707.19
2018-11-10T12:28:04.747Z,99705.91
2018-11-10T12:30:33.222Z,99706.76
2018-11-10T12:33:01.661Z,99703.78
2018-11-10T12:35:30.145Z,99700.36
2018-11-10T12:37:58.566Z,99695.67
2018-11-10T12:40:27.017Z,99695.23
2018-11-10T12:42:56.300Z,99695.23
2018-11-10T12:45:24.730Z,99689.66
2018-11-10T12:47:53.152Z,99690.92
2018-11-10T12:50:21.620Z,99683.23
2018-11-10T12:52:50.085Z,99689.20
2018-11-10T12:55:18.580Z,99683.17
2018-11-10T12:57:47.378Z,99678.45
2018-11-10T13:00:17.072Z,99672.87
2018-11-10T13:02:45.925Z,99675.86
2018-11-10T13:05:14.482Z,99668.55
2018-11-10T13:07:44.468Z,99670.25
2018-11-10T13:10:12.993Z,99661.22
2018-11-10T13:12:42.075Z,99665.45
2018-11-10T13:15:10.924Z,99665.41
2018-11-10T13:17:39.742Z,99666.67
2018-11-10T13:20:10.986Z,99660.25
2018-11-10T13:22:39.402Z,99651.22
2018-11-10T13:25:08.645Z,99652.05
2018-11-10T13:27:37.110Z,99640.88
2018-11-10T13:30:06.437Z,99640.90
2018-11-10T13:32:34.887Z,99636.56
2018-11-10T13:35:03.422Z,99634.84
2018-11-10T13:37:31.941Z,99634.00
2018-11-10T13:40:00.407Z,99636.98
2018-11-10T13:42:28.955Z,99636.56
2018-11-10T13:44:57.380Z,99642.55
2018-11-10T13:47:25.881Z,99651.09
2018-11-10T13:49:54.365Z,99635.70
2018-11-10T13:52:23.150Z,99630.97
2018-11-10T13:54:51.275Z,99630.56
2018-11-10T13:57:19.880Z,99637.83
2018-11-10T13:59:48.351Z,99629.69
2018-11-10T14:02:16.867Z,99626.25
2018-11-10T14:04:45.306Z,99623.23
2018-11-10T14:07:13.780Z,99624.94
2018-11-10T14:09:42.184Z,99617.66
2018-11-10T14:12:10.613Z,99612.53
2018-11-10T14:14:39.079Z,99606.11
2018-11-10T14:17:07.532Z,99611.25
2018-11-10T14:19:36.112Z,99603.08
2018-11-10T14:22:04.597Z,99594.97
2018-11-10T14:24:33.070Z,99599.69
2018-11-10T14:27:02.970Z,99586.84
2018-11-10T14:29:32.166Z,99585.56
2018-11-10T14:32:00.626Z,99590.27
2018-11-10T14:34:29.131Z,99590.23
2018-11-10T14:36:58.289Z,99593.27
2018-11-10T14:39:26.769Z,99588.16
2018-11-10T14:41:55.285Z,99575.76
2018-11-10T14:44:23.715Z,99586.00
2018-11-10T14:46:52.153Z,99586.00
2018-11-10T14:49:22.245Z,99587.31
2018-11-10T14:51:50.727Z,99586.03
2018-11-10T14:54:19.218Z,99585.62
2018-11-10T14:56:48.809Z,99581.36
2018-11-10T14:59:18.982Z,99596.30
2018-11-10T15:01:47.471Z,99595.48
2018-11-10T15:04:15.899Z,99596.30
2018-11-10T15:06:44.355Z,99598.88
2018-11-10T15:09:12.794Z,99597.59
2018-11-10T15:11:41.244Z,99598.41
2018-11-10T15:14:09.704Z,99597.91
2018-11-10T15:16:39.168Z,99593.22
2018-11-10T15:19:08.082Z,99588.11
2018-11-10T15:21:36.501Z,99584.28
2018-11-10T15:24:05.686Z,99594.55
2018-11-10T15:26:34.088Z,99603.13
2018-11-10T15:29:02.546Z,99606.14
2018-11-10T15:31:31.015Z,99609.09
2018-11-10T15:33:59.400Z,99606.08
2018-11-10T15:36:27.821Z,99609.03
2018-11-10T15:38:56.247Z,99611.63
2018-11-10T15:41:24.664Z,99612.91
2018-11-10T15:43:53.081Z,99607.37
2018-11-10T15:46:21.618Z,99611.55
2018-11-10T15:48:50.141Z,99604.28
2018-11-10T15:51:18.563Z,99613.66
2018-11-10T15:53:46.999Z,99611.91
2018-11-10T15:56:15.480Z,99609.75
2018-11-10T15:58:43.923Z,99612.78
2018-11-10T16:01:12.398Z,99608.06
2018-11-10T16:03:40.888Z,99608.06
2018-11-10T16:06:09.329Z,99608.46
2018-11-10T16:08:37.779Z,99604.66
2018-11-10T16:11:06.263Z,99611.09
2018-11-10T16:13:34.652Z,99612.32
2018-11-10T16:16:03.143Z,99611.47
2018-11-10T16:18:31.606Z,99625.14
2018-11-10T16:21:00.205Z,99624.70
2018-11-10T16:23:28.569Z,99625.93
2018-11-10T16:25:57.097Z,99629.81
2018-11-10T16:28:25.547Z,99629.81
2018-11-10T16:30:53.997Z,99631.50
2018-11-10T16:33:22.473Z,99626.02
2018-11-10T16:35:50.968Z,99624.29
2018-11-10T16:38:19.428Z,99626.44
2018-11-10T16:40:47.878Z,99624.75
2018-11-10T16:43:16.325Z,99625.21
2018-11-10T16:45:44.770Z,99629.50
2018-11-10T16:48:13.245Z,99627.40
2018-11-10T16:50:41.629Z,99620.54
2018-11-10T16:53:10.130Z,99619.72
2018-11-10T16:55:38.554Z,99623.13
2018-11-10T16:58:07.083Z,99630.81
2018-11-10T17:00:35.587Z,99631.62
2018-11-10T17:03:04.140Z,99633.35
2018-11-10T17:05:32.650Z,99638.00
2018-11-10T17:08:01.076Z,99632.05
2018-11-10T17:10:29.571Z,99629.89
2018-11-10T17:12:57.992Z,99630.34
2018-11-10T17:15:26.483Z,99590.98
2018-11-10T17:17:54.935Z,99628.25
2018-11-10T17:20:23.362Z,99630.41
2018-11-10T17:22:51.832Z,99637.64
2018-11-10T17:25:20.260Z,99639.80
2018-11-10T17:27:48.734Z,99646.69
2018-11-10T17:30:18.872Z,99653.10
2018-11-10T17:32:47.300Z,99654.75
2018-11-10T17:35:16.535Z,99662.86
2018-11-10T17:37:45.404Z,99660.30
2018-11-10T17:40:14.763Z,99659.81
2018-11-10T17:42:43.228Z,99660.20
2018-11-10T17:45:13.086Z,99658.48
2018-11-10T17:47:42.172Z,99660.99
2018-11-10T17:50:11.933Z,99655.85
2018-11-10T17:52:40.544Z,99653.34
2018-11-10T17:55:10.355Z,99653.78
2018-11-10T17:57:38.872Z,99652.00
2018-11-10T18:00:07.381Z,99649.79
2018-11-10T18:02:35.820Z,99634.81
2018-11-10T18:05:04.433Z,99643.80
2018-11-10T18:07:32.869Z,99652.82
2018-11-10T18:10:01.305Z,99648.97
2018-11-10T18:12:29.772Z,99649.87
2018-11-10T18:14:58.233Z,99652.03
2018-11-10T18:17:26.909Z,99640.50
2018-11-10T18:19:55.345Z,99640.50
2018-11-10T18:22:23.791Z,99647.81
2018-11-10T18:24:52.231Z,99655.09
2018-11-10T18:27:20.666Z,99657.17
2018-11-10T18:29:49.168Z,99661.05
2018-11-10T18:32:17.688Z,99657.66
2018-11-10T18:34:46.089Z,99653.85
2018-11-10T18:37:14.564Z,99652.59
2018-11-10T18:39:43.018Z,99656.94
2018-11-10T18:42:11.539Z,99655.21
2018-11-10T18:44:40.003Z,99662.50
2018-11-10T18:47:08.579Z,99668.97
2018-11-10T18:49:37.002Z,99675.42
2018-11-10T18:52:05.643Z,99675.03
2018-11-10T18:54:34.040Z,99678.05
2018-11-10T18:57:02.726Z,99680.63
2018-11-10T18:59:32.064Z,99681.09
2018-11-10T19:02:02.993Z,99684.52
2018-11-10T19:04:31.555Z,99685.39
2018-11-10T19:06:59.991Z,99697.38
2018-11-10T19:09:33.111Z,99688.83
2018-11-10T19:12:01.492Z,99690.55
2018-11-10T19:14:29.934Z,99690.98
2018-11-10T19:16:58.398Z,99688.88
2018-11-10T19:19:26.830Z,99693.17
2018-11-10T19:21:55.295Z,99692.32
2018-11-10T19:24:23.674Z,99686.34
2018-11-10T19:26:52.115Z,99688.91
2018-11-10T19:29:20.596Z,99682.52
2018-11-10T19:31:49.100Z,99671.39
2018-11-10T19:34:17.507Z,99677.81
2018-11-10T19:36:45.990Z,99673.09
2018-11-10T19:39:14.409Z,99673.11
2018-11-10T19:41:42.905Z,99670.57
2018-11-10T19:44:11.379Z,99671.01
2018-11-10T19:46:40.717Z,99671.42
2018-11-10T19:49:09.545Z,99663.30
2018-11-10T19:51:38.323Z,99665.87
2018-11-10T19:54:06.514Z,99667.16
2018-11-10T19:56:34.995Z,99658.61
2018-11-10T19:59:03.423Z,99659.45
2018-11-10T20:01:31.876Z,99655.64
2018-11-10T20:04:00.368Z,99668.88
2018-11-10T20:06:28.883Z,99667.59
2018-11-10T20:08:57.384Z,99683.02
2018-11-10T20:11:25.822Z,99685.98
2018-11-10T20:13:54.277Z,99693.71
2018-11-10T20:16:22.670Z,99694.15
2018-11-10T20:18:51.101Z,99707.42
2018-11-10T20:21:19.573Z,99711.25
2018-11-10T20:23:48.115Z,99709.98
2018-11-10T20:26:16.584Z,99710.01
2018-11-10T20:28:45.045Z,99707.42
2018-11-10T20:31:13.801Z,99714.69
2018-11-10T20:33:42.219Z,99725.39
2018-11-10T20:36:10.661Z,99731.83
2018-11-10T20:38:39.189Z,99736.13
2018-11-10T20:41:08.002Z,99731.89
2018-11-10T20:43:36.486Z,99745.14
2018-11-10T20:46:05.356Z,99741.70
2018-11-10T20:48:33.833Z,99742.14
2018-11-10T20:51:02.441Z,99745.98
2018-11-10T20:53:31.102Z,99749.84
2018-11-10T20:55:59.570Z,99743.45
2018-11-10T20:58:28.031Z,99735.77
2018-11-10T21:00:56.542Z,99738.33
2018-11-10T21:03:25.012Z,99734.06
2018-11-10T21:05:53.508Z,99733.66
2018-11-10T21:08:22.191Z,99733.66
2018-11-10T21:10:50.638Z,99743.90
2018-11-10T21:13:19.285Z,99747.75
2018-11-10T21:15:47.740Z,99741.37
2018-11-10T21:18:16.212Z,99742.66
2018-11-10T21:20:44.648Z,99744.83
2018-11-10T21:23:13.055Z,99745.25
2018-11-10T21:25:41.546Z,99744.40
2018-11-10T21:28:10.065Z,99746.97
2018-11-10T21:30:38.447Z,99746.12
2018-11-10T21:33:06.922Z,99734.97
2018-11-10T21:35:35.546Z,99732.41
2018-11-10T21:38:03.792Z,99740.53
2018-11-10T21:40:32.216Z,99750.82
2018-11-10T21:43:00.730Z,99752.97
2018-11-10T21:45:29.163Z,99750.39
2018-11-10T21:47:57.609Z,99735.91
2018-11-10T21:50:26.081Z,99743.10
2018-11-10T21:52:54.528Z,99745.25
2018-11-10T21:55:22.997Z,99756.80
2018-11-10T21:57:51.466Z,99750.39
2018-11-10T22:00:21.340Z,99752.11
2018-11-10T22:02:50.200Z,99752.54
2018-11-10T22:05:19.185Z,99758.95
2018-11-10T22:07:47.645Z,99755.98
2018-11-10T22:10:17.253Z,99765.80
2018-11-10T22:12:46.061Z,99771.38
2018-11-10T22:15:16.008Z,99767.11
2018-11-10T22:17:45.203Z,99763.70
2018-11-10T22:20:14.876Z,99767.11
2018-11-10T22:22:43.377Z,99767.52
2018-11-10T22:25:12.437Z,99770.11
2018-11-10T22:27:43.100Z,99768.83
2018-11-10T22:30:13.843Z,99763.72
2018-11-10T22:32:42.876Z,99770.58
2018-11-10T22:35:11.518Z,99767.61
2018-11-10T22:37:40.101Z,99755.23
2018-11-10T22:40:10.816Z,99770.63
2018-11-10T22:42:39.813Z,99767.64
2018-11-10T22:45:09.810Z,99777.91
2018-11-10T22:47:38.962Z,99778.33
2018-11-10T22:50:09.566Z,99772.78
2018-11-10T22:52:38.108Z,99763.84
2018-11-10T22:55:07.096Z,99769.77
2018-11-10T22:57:36.264Z,99765.94
2018-11-10T23:00:07.480Z,99757.83
2018-11-10T23:02:36.044Z,99756.15
2018-11-10T23:05:05.665Z,99762.56
2018-11-10T23:07:34.066Z,99768.12
2018-11-10T23:10:02.505Z,99768.14
2018-11-10T23:12:30.931Z,99766.86
2018-11-10T23:14:59.365Z,99775.83
2018-11-10T23:17:27.825Z,99782.67
2018-11-10T23:19:56.305Z,99780.95
2018-11-10T23:22:24.713Z,99768.56
2018-11-10T23:24:53.212Z,99769.84
2018-11-10T23:27:21.617Z,99768.98
2018-11-10T23:29:50.131Z,99764.28
2018-11-10T23:32:18.668Z,99765.56
2018-11-10T23:34:47.058Z,99757.88
2018-11-10T23:37:16.140Z,99757.88
2018-11-10T23:39:44.634Z,99755.36
2018-11-10T23:42:13.060Z,99760.07
2018-11-10T23:44:41.449Z,99769.92
2018-11-10T23:47:09.932Z,99766.94
2018-11-10T23:49:38.524Z,99769.54
2018-11-10T23:52:06.982Z,99767.39
2018-11-10T23:54:35.483Z,99768.67
2018-11-10T23:57:03.878Z,99772.52
2018-11-10T23:59:32.653Z,99760.56
